createdAt,value
2022-11-26T00:02:39.415Z,16.26
2022-11-26T00:08:06.459Z,13.42
2022-11-26T00:13:37.348Z,14.81
2022-11-26T00:19:01.415Z,15.73
2022-11-26T00:24:25.332Z,12.95
2022-11-26T00:29:49.606Z,16.72
2022-11-26T00:35:16.083Z,15.25
2022-11-26T00:40:40.328Z,13.25
2022-11-26T00:46:07.355Z,11.14
2022-11-26T00:51:35.421Z,8.48
2022-11-26T00:56:58.946Z,7.88
2022-11-26T01:02:25.849Z,10.87
2022-11-26T01:07:50.420Z,8.56
2022-11-26T01:13:14.985Z,7.71
2022-11-26T01:18:36.349Z,10.67
2022-11-26T01:23:57.852Z,6.77
2022-11-26T01:29:19.528Z,7.85
2022-11-26T01:34:42.902Z,7.52
2022-11-26T01:40:07.087Z,8.96
2022-11-26T01:45:49.697Z,10.20
2022-11-26T01:51:15.294Z,6.94
2022-11-26T01:56:38.675Z,9.09
2022-11-26T02:02:05.924Z,12.85
2022-11-26T02:07:30.437Z,12.78
2022-11-26T02:12:55.623Z,8.03
2022-11-26T02:18:17.953Z,8.60
2022-11-26T02:23:41.961Z,9.74
2022-11-26T02:29:27.340Z,10.51
2022-11-26T02:35:22.668Z,10.31
2022-11-26T02:40:49.380Z,12.39
2022-11-26T02:46:13.691Z,9.26
2022-11-26T02:51:39.452Z,8.98
2022-11-26T02:57:05.283Z,8.53
2022-11-26T03:02:28.654Z,9.40
2022-11-26T03:07:55.433Z,12.08
2022-11-26T03:13:20.292Z,8.92
2022-11-26T03:18:43.386Z,9.19
2022-11-26T03:24:06.438Z,8.36
2022-11-26T03:29:31.384Z,7.10
2022-11-26T03:34:57.921Z,8.87
2022-11-26T03:40:25.075Z,10.47
2022-11-26T03:45:52.211Z,9.81
2022-11-26T03:51:16.152Z,9.29
2022-11-26T03:56:41.481Z,10.34
2022-11-26T04:02:08.345Z,7.94
2022-11-26T04:07:35.611Z,10.64
2022-11-26T04:12:58.977Z,7.41
2022-11-26T04:18:24.065Z,10.85
2022-11-26T04:23:48.326Z,8.27
2022-11-26T04:29:12.486Z,11.84
2022-11-26T04:34:36.269Z,7.16
2022-11-26T04:40:02.865Z,9.26
2022-11-26T04:45:29.856Z,7.95
2022-11-26T04:50:55.056Z,9.85
2022-11-26T04:56:19.413Z,9.53
2022-11-26T05:01:45.653Z,6.15
2022-11-26T05:07:11.571Z,8.82
2022-11-26T05:12:33.002Z,9.50
2022-11-26T05:17:54.077Z,8.18
2022-11-26T05:23:19.600Z,5.54
2022-11-26T05:28:45.615Z,9.67
2022-11-26T05:34:09.918Z,8.68
2022-11-26T05:39:35.325Z,5.59
2022-11-26T05:45:02.421Z,6.63
2022-11-26T05:50:30.409Z,7.18
2022-11-26T05:55:55.805Z,5.82
2022-11-26T06:01:18.336Z,8.61
2022-11-26T06:06:40.677Z,6.75
2022-11-26T06:12:07.469Z,6.50
2022-11-26T06:17:35.112Z,7.28
2022-11-26T06:22:59.477Z,5.75
2022-11-26T06:28:24.083Z,7.69
2022-11-26T06:33:49.438Z,5.81
2022-11-26T06:39:13.797Z,9.00
2022-11-26T06:44:40.175Z,7.46
2022-11-26T06:50:10.726Z,9.32
2022-11-26T06:55:34.048Z,5.68
2022-11-26T07:00:59.767Z,8.01
2022-11-26T07:06:25.334Z,7.29
2022-11-26T07:11:46.814Z,11.70
2022-11-26T07:17:09.846Z,8.02
2022-11-26T07:22:36.213Z,7.69
2022-11-26T07:28:02.209Z,8.67
2022-11-26T07:33:30.143Z,7.64
2022-11-26T07:38:57.319Z,6.56
2022-11-26T07:44:23.777Z,7.90
2022-11-26T07:49:48.764Z,8.18
2022-11-26T07:55:13.380Z,7.49
2022-11-26T08:00:39.912Z,8.44
2022-11-26T08:06:07.462Z,11.56
2022-11-26T08:11:34.742Z,11.38
2022-11-26T08:17:02.396Z,8.49
2022-11-26T08:22:26.709Z,10.01
2022-11-26T08:27:48.085Z,8.43
2022-11-26T08:33:09.240Z,7.72
2022-11-26T08:38:33.528Z,9.43
2022-11-26T08:44:07.234Z,8.63
2022-11-26T08:49:21.163Z,14.55
2022-11-26T08:54:49.681Z,12.37
2022-11-26T09:00:15.352Z,12.24
2022-11-26T09:05:42.462Z,9.07
2022-11-26T09:11:10.401Z,10.34
2022-11-26T09:16:42.280Z,10.06
2022-11-26T09:22:08.626Z,10.37
2022-11-26T09:27:36.307Z,8.84
2022-11-26T09:33:02.292Z,11.11
2022-11-26T09:38:25.743Z,13.76
2022-11-26T09:43:53.374Z,13.87
2022-11-26T09:49:30.463Z,11.24
2022-11-26T09:54:54.031Z,10.32
2022-11-26T10:00:20.625Z,7.85
2022-11-26T10:05:46.288Z,7.88
2022-11-26T10:11:13.625Z,8.75
2022-11-26T10:16:40.003Z,8.39
2022-11-26T10:22:09.661Z,7.89
2022-11-26T10:27:37.206Z,8.68
2022-11-26T10:33:03.406Z,8.02
2022-11-26T10:38:26.573Z,9.48
2022-11-26T10:43:51.628Z,11.47
2022-11-26T10:49:14.045Z,10.79
2022-11-26T10:54:41.881Z,13.61
2022-11-26T11:00:08.517Z,13.30
2022-11-26T11:05:44.408Z,16.90
2022-11-26T11:11:08.562Z,15.56
2022-11-26T11:16:33.062Z,11.42
2022-11-26T11:21:58.254Z,12.32
2022-11-26T11:27:23.075Z,13.06
2022-11-26T11:32:46.163Z,13.95
2022-11-26T11:38:14.817Z,12.31
2022-11-26T11:43:44.917Z,12.73
2022-11-26T11:49:09.545Z,12.82
2022-11-26T11:54:32.964Z,13.65
2022-11-26T11:59:59.157Z,13.49
2022-11-26T12:05:27.625Z,16.08
2022-11-26T12:11:09.105Z,14.37
2022-11-26T12:16:41.877Z,16.84
2022-11-26T12:22:08.336Z,12.80
2022-11-26T12:27:30.973Z,16.06
2022-11-26T12:32:53.727Z,15.29
2022-11-26T12:38:17.736Z,15.24
2022-11-26T12:43:45.910Z,12.97
2022-11-26T12:49:08.350Z,17.89
2022-11-26T12:54:36.860Z,12.88
2022-11-26T13:00:01.070Z,16.53
2022-11-26T13:05:28.189Z,14.66
2022-11-26T13:10:55.506Z,17.59
2022-11-26T13:16:24.113Z,15.59
2022-11-26T13:21:48.255Z,18.95
2022-11-26T13:27:28.437Z,16.41
2022-11-26T13:33:02.683Z,17.12
2022-11-26T13:38:46.506Z,19.90
2022-11-26T13:44:19.924Z,16.94
2022-11-26T13:50:19.280Z,17.00
2022-11-26T13:55:43.499Z,19.81
2022-11-26T14:01:09.734Z,17.94
2022-11-26T14:06:46.078Z,16.22
2022-11-26T14:12:37.282Z,17.00
2022-11-26T14:18:33.268Z,14.80
2022-11-26T14:24:13.007Z,12.27
2022-11-26T14:29:40.460Z,16.99
2022-11-26T14:35:07.309Z,12.66
2022-11-26T14:40:37.364Z,12.53
2022-11-26T14:46:04.985Z,13.33
2022-11-26T14:51:31.058Z,10.58
2022-11-26T14:56:52.264Z,9.11
2022-11-26T15:02:14.420Z,10.59
2022-11-26T15:07:40.602Z,12.68
2022-11-26T15:13:07.539Z,10.83
2022-11-26T15:18:31.291Z,10.05
2022-11-26T15:23:55.064Z,10.35
2022-11-26T15:29:16.931Z,10.75
2022-11-26T15:34:43.331Z,9.89
2022-11-26T15:40:09.936Z,10.80
2022-11-26T15:45:40.079Z,11.73
2022-11-26T15:51:05.768Z,10.33
2022-11-26T15:56:28.980Z,11.44
2022-11-26T16:01:54.713Z,11.89
2022-11-26T16:07:24.473Z,11.06
2022-11-26T16:12:49.415Z,11.01
2022-11-26T16:18:37.369Z,10.03
2022-11-26T16:24:01.700Z,9.18
2022-11-26T16:29:32.088Z,8.56
2022-11-26T16:34:58.795Z,11.89
2022-11-26T16:40:28.215Z,12.71
2022-11-26T16:45:52.954Z,9.94
2022-11-26T16:51:14.310Z,11.56
2022-11-26T16:56:38.565Z,7.68
2022-11-26T17:02:00.153Z,12.36
2022-11-26T17:07:23.880Z,12.41
2022-11-26T17:12:50.874Z,12.35
2022-11-26T17:18:16.137Z,15.83
2022-11-26T17:23:39.229Z,12.84
2022-11-26T17:29:04.406Z,9.37
2022-11-26T17:34:35.035Z,16.83
2022-11-26T17:40:01.701Z,9.78
2022-11-26T17:45:31.540Z,10.89
2022-11-26T17:50:55.428Z,9.10
2022-11-26T17:56:19.466Z,13.56
2022-11-26T18:01:50.264Z,12.58
2022-11-26T18:07:15.840Z,12.55
2022-11-26T18:12:41.025Z,11.82
2022-11-26T18:18:07.945Z,13.88
2022-11-26T18:23:35.252Z,12.97
2022-11-26T18:28:57.028Z,11.63
2022-11-26T18:34:24.724Z,14.14
2022-11-26T18:39:51.355Z,13.21
2022-11-26T18:45:18.199Z,8.76
2022-11-26T18:50:44.577Z,9.09
2022-11-26T18:56:16.556Z,8.00
2022-11-26T19:01:42.669Z,11.24
2022-11-26T19:07:10.569Z,11.93
2022-11-26T19:12:37.066Z,7.37
2022-11-26T19:18:04.032Z,9.54
2022-11-26T19:23:31.469Z,8.65
2022-11-26T19:28:57.415Z,10.47
2022-11-26T19:34:22.039Z,6.99
2022-11-26T19:39:48.187Z,9.03
2022-11-26T19:45:15.673Z,14.27
2022-11-26T19:50:41.016Z,11.62
2022-11-26T19:56:12.765Z,10.53
2022-11-26T20:01:38.562Z,7.36
2022-11-26T20:07:01.004Z,11.24
2022-11-26T20:12:26.939Z,11.21
2022-11-26T20:17:53.575Z,9.68
2022-11-26T20:23:20.504Z,9.43
2022-11-26T20:28:47.749Z,8.00
2022-11-26T20:34:14.816Z,10.67
2022-11-26T20:39:40.102Z,13.32
2022-11-26T20:45:07.403Z,12.17
2022-11-26T20:50:33.752Z,8.64
2022-11-26T20:55:59.714Z,12.30
2022-11-26T21:01:25.771Z,9.70
2022-11-26T21:06:52.879Z,8.95
2022-11-26T21:12:18.836Z,10.16
2022-11-26T21:17:43.799Z,9.60
2022-11-26T21:23:08.891Z,10.17
2022-11-26T21:28:33.795Z,11.16
2022-11-26T21:33:58.855Z,9.10
2022-11-26T21:39:27.056Z,13.37
2022-11-26T21:44:52.157Z,9.17
2022-11-26T21:50:16.395Z,9.22
2022-11-26T21:55:44.939Z,9.44
2022-11-26T22:01:06.252Z,9.40
2022-11-26T22:06:28.122Z,10.07
2022-11-26T22:11:48.986Z,10.09
2022-11-26T22:17:10.351Z,10.04
2022-11-26T22:22:36.043Z,10.06
2022-11-26T22:28:01.123Z,15.49
2022-11-26T22:33:28.711Z,19.22
2022-11-26T22:38:55.617Z,13.45
2022-11-26T22:44:21.414Z,9.64
2022-11-26T22:49:49.137Z,11.19
2022-11-26T22:55:15.204Z,11.95
2022-11-26T23:00:36.192Z,12.38
2022-11-26T23:06:03.521Z,12.95
2022-11-26T23:11:30.190Z,13.73
2022-11-26T23:16:56.548Z,12.36
2022-11-26T23:22:24.187Z,8.44
2022-11-26T23:27:51.167Z,7.25
2022-11-26T23:33:18.136Z,8.01
2022-11-26T23:38:39.251Z,7.39
2022-11-26T23:44:06.492Z,4.85
2022-11-26T23:49:32.476Z,6.89
2022-11-26T23:54:59.868Z,7.89
